createdAt,value
2023-03-12T00:01:53.024Z,68.00
2023-03-12T00:04:35.748Z,55.30
2023-03-12T00:07:18.046Z,70.65
2023-03-12T00:10:06.864Z,68.55
2023-03-12T00:12:49.027Z,62.55
2023-03-12T00:15:38.945Z,66.03
2023-03-12T00:18:20.960Z,63.40
2023-03-12T00:21:10.805Z,64.32
2023-03-12T00:24:07.847Z,60.95
2023-03-12T00:26:50.124Z,70.13
2023-03-12T00:29:38.809Z,65.32
2023-03-12T00:32:21.812Z,75.68
2023-03-12T00:35:11.188Z,60.67
2023-03-12T00:37:59.124Z,63.35
2023-03-12T00:40:41.777Z,62.90
2023-03-12T00:43:30.822Z,67.13
2023-03-12T00:46:15.051Z,69.30
2023-03-12T00:49:03.876Z,66.80
2023-03-12T00:51:46.088Z,66.35
2023-03-12T00:54:34.854Z,66.50
2023-03-12T00:57:17.072Z,68.97
2023-03-12T01:00:05.857Z,65.85
2023-03-12T01:02:49.048Z,63.72
2023-03-12T01:05:37.841Z,66.95
2023-03-12T01:08:20.564Z,60.55
2023-03-12T01:11:10.813Z,68.97
2023-03-12T01:13:53.134Z,66.28
2023-03-12T01:16:41.879Z,62.53
2023-03-12T01:19:24.380Z,69.75
2023-03-12T01:22:12.738Z,56.60
2023-03-12T01:25:01.113Z,60.22
2023-03-12T01:27:43.781Z,54.92
2023-03-12T01:30:32.070Z,70.10
2023-03-12T01:33:14.829Z,68.43
2023-03-12T01:36:03.885Z,61.03
2023-03-12T01:38:46.044Z,59.78
2023-03-12T01:41:37.773Z,64.85
2023-03-12T01:44:23.087Z,55.15
2023-03-12T01:47:13.014Z,61.45
2023-03-12T01:49:58.075Z,64.25
2023-03-12T01:52:47.780Z,56.97
2023-03-12T01:55:36.711Z,62.28
2023-03-12T01:58:26.120Z,54.03
2023-03-12T02:01:08.821Z,56.60
2023-03-12T02:04:02.219Z,55.67
2023-03-12T02:07:11.810Z,59.40
2023-03-12T02:09:54.000Z,58.67
2023-03-12T02:12:42.712Z,57.70
2023-03-12T02:15:25.159Z,60.13
2023-03-12T02:18:14.816Z,50.50
2023-03-12T02:21:12.347Z,55.10
2023-03-12T02:24:16.777Z,48.15
2023-03-12T02:27:06.712Z,57.90
2023-03-12T02:29:53.079Z,52.90
2023-03-12T02:32:45.989Z,50.33
2023-03-12T02:35:28.099Z,50.55
2023-03-12T02:38:37.785Z,52.17
2023-03-12T02:41:26.104Z,60.80
2023-03-12T02:44:18.814Z,66.03
2023-03-12T02:47:04.096Z,55.33
2023-03-12T02:49:52.761Z,65.53
2023-03-12T02:52:37.366Z,59.25
2023-03-12T02:55:25.801Z,50.00
2023-03-12T02:58:08.109Z,51.95
2023-03-12T03:00:56.800Z,43.08
2023-03-12T03:03:45.817Z,46.95
2023-03-12T03:06:35.048Z,55.20
2023-03-12T03:09:17.843Z,42.42
2023-03-12T03:11:59.922Z,48.60
2023-03-12T03:17:39.773Z,59.63
2023-03-12T03:20:23.765Z,50.63
2023-03-12T03:23:14.223Z,54.55
2023-03-12T03:26:03.532Z,51.88
2023-03-12T03:28:46.734Z,59.35
2023-03-12T03:31:35.638Z,60.53
2023-03-12T03:34:24.784Z,61.08
2023-03-12T03:37:14.041Z,52.90
2023-03-12T03:39:55.799Z,59.30
2023-03-12T03:42:45.264Z,49.90
2023-03-12T03:45:27.818Z,46.75
2023-03-12T03:48:16.067Z,46.72
2023-03-12T03:50:58.767Z,42.53
2023-03-12T03:53:51.097Z,43.30
2023-03-12T03:56:33.728Z,45.08
2023-03-12T03:59:23.754Z,47.47
2023-03-12T04:02:07.073Z,50.28
2023-03-12T04:07:44.685Z,50.67
2023-03-12T04:10:37.716Z,47.40
2023-03-12T04:13:19.969Z,44.63
2023-03-12T04:16:08.850Z,41.60
2023-03-12T04:18:58.793Z,46.00
2023-03-12T04:21:40.957Z,35.58
2023-03-12T04:24:36.076Z,38.03
2023-03-12T04:27:24.048Z,33.80
2023-03-12T04:30:06.733Z,34.88
2023-03-12T04:32:48.990Z,36.25
2023-03-12T04:35:37.782Z,32.70
2023-03-12T04:38:27.102Z,34.80
2023-03-12T04:41:18.720Z,34.72
2023-03-12T04:44:07.175Z,37.53
2023-03-12T04:46:57.802Z,32.85
2023-03-12T04:49:41.195Z,26.90
2023-03-12T04:52:29.729Z,34.13
2023-03-12T04:55:13.037Z,24.88
2023-03-12T04:58:01.813Z,26.17
2023-03-12T05:00:50.817Z,35.60
2023-03-12T05:03:39.769Z,27.90
2023-03-12T05:06:30.736Z,26.70
2023-03-12T05:09:13.115Z,28.98
2023-03-12T05:12:01.819Z,34.10
2023-03-12T05:14:45.049Z,39.35
2023-03-12T05:17:33.774Z,31.17
2023-03-12T05:20:18.802Z,28.80
2023-03-12T05:23:07.795Z,34.30
2023-03-12T05:25:56.114Z,34.13
2023-03-12T05:28:38.859Z,29.30
2023-03-12T05:31:22.519Z,35.25
2023-03-12T05:34:11.736Z,27.98
2023-03-12T05:37:01.632Z,48.03
2023-03-12T05:39:54.837Z,39.47
2023-03-12T05:45:27.839Z,40.70
2023-03-12T05:48:17.724Z,40.25
2023-03-12T05:51:03.087Z,35.80
2023-03-12T05:53:57.487Z,30.30
2023-03-12T05:56:52.049Z,43.50
2023-03-12T05:59:43.763Z,43.58
2023-03-12T06:02:32.872Z,47.55
2023-03-12T06:05:16.463Z,44.67
2023-03-12T06:08:06.838Z,40.88
2023-03-12T06:10:58.083Z,45.10
2023-03-12T06:13:40.777Z,35.85
2023-03-12T06:16:32.817Z,35.47
2023-03-12T06:19:22.765Z,36.87
2023-03-12T06:22:11.732Z,38.20
2023-03-12T06:24:54.710Z,26.73
2023-03-12T06:27:43.794Z,35.90
2023-03-12T06:30:26.042Z,38.88
2023-03-12T06:33:16.793Z,31.67
2023-03-12T06:36:09.045Z,40.08
2023-03-12T06:38:58.144Z,42.75
2023-03-12T06:41:40.030Z,32.60
2023-03-12T06:44:28.805Z,36.97
2023-03-12T06:47:11.080Z,35.10
2023-03-12T06:49:59.800Z,35.17
2023-03-12T06:52:42.076Z,27.38
2023-03-12T06:55:30.716Z,41.65
2023-03-12T06:58:13.185Z,31.42
2023-03-12T07:01:02.760Z,33.22
2023-03-12T07:03:45.097Z,24.23
2023-03-12T07:06:33.862Z,28.67
2023-03-12T07:09:16.126Z,22.73
2023-03-12T07:12:04.852Z,26.90
2023-03-12T07:14:47.048Z,30.52
2023-03-12T07:17:35.781Z,28.58
2023-03-12T07:20:19.000Z,26.63
2023-03-12T07:23:08.730Z,24.20
2023-03-12T07:25:58.052Z,24.85
2023-03-12T07:28:40.746Z,26.38
2023-03-12T07:31:29.216Z,25.40
2023-03-12T07:34:13.874Z,32.47
2023-03-12T07:37:02.235Z,27.40
2023-03-12T07:39:44.836Z,25.13
2023-03-12T07:42:27.086Z,23.65
2023-03-12T07:45:15.717Z,30.55
2023-03-12T07:48:04.128Z,27.83
2023-03-12T07:50:46.770Z,34.17
2023-03-12T07:53:36.173Z,29.77
2023-03-12T07:56:17.946Z,32.95
2023-03-12T07:59:00.003Z,24.90
2023-03-12T08:01:48.915Z,31.05
2023-03-12T08:04:37.144Z,34.42
2023-03-12T08:07:19.817Z,23.08
2023-03-12T08:10:14.058Z,21.60
2023-03-12T08:12:56.818Z,24.85
2023-03-12T08:15:45.788Z,28.42
2023-03-12T08:18:29.183Z,26.02
2023-03-12T08:21:17.787Z,27.38
2023-03-12T08:24:06.751Z,27.50
2023-03-12T08:26:57.119Z,28.17
2023-03-12T08:29:40.702Z,27.15
2023-03-12T08:32:23.168Z,22.52
2023-03-12T08:35:13.788Z,25.77
2023-03-12T08:38:03.177Z,30.45
2023-03-12T08:40:45.726Z,28.77
2023-03-12T08:43:36.095Z,26.77
2023-03-12T08:46:19.147Z,27.33
2023-03-12T08:49:07.154Z,28.02
2023-03-12T08:51:48.805Z,29.45
2023-03-12T08:54:43.625Z,28.40
2023-03-12T08:57:33.772Z,30.52
2023-03-12T09:00:19.048Z,27.70
2023-03-12T09:03:07.776Z,26.65
2023-03-12T09:05:51.098Z,42.58
2023-03-12T09:08:41.843Z,40.58
2023-03-12T09:11:23.992Z,62.50
2023-03-12T09:14:50.201Z,34.63
2023-03-12T09:17:15.253Z,48.78
2023-03-12T09:20:06.734Z,64.20
2023-03-12T09:22:56.773Z,31.58
2023-03-12T09:25:52.780Z,48.60
2023-03-12T09:28:35.129Z,57.45
2023-03-12T09:31:23.739Z,52.28
2023-03-12T09:34:13.062Z,48.22
2023-03-12T09:36:55.825Z,45.08
2023-03-12T09:42:35.787Z,50.88
2023-03-12T09:45:36.131Z,46.83
2023-03-12T09:48:47.438Z,42.63
2023-03-12T09:51:37.166Z,58.22
2023-03-12T09:54:52.821Z,46.30
2023-03-12T09:57:42.063Z,45.22
2023-03-12T10:00:27.836Z,47.13
2023-03-12T10:03:38.221Z,51.92
2023-03-12T10:06:24.806Z,41.50
2023-03-12T10:09:28.256Z,42.78
2023-03-12T10:12:58.797Z,43.65
2023-03-12T10:15:59.242Z,40.55
2023-03-12T10:19:04.781Z,36.33
2023-03-12T10:22:16.138Z,35.33
2023-03-12T10:25:21.866Z,37.72
2023-03-12T10:28:28.217Z,34.60
2023-03-12T10:31:21.823Z,41.80
2023-03-12T10:34:25.086Z,31.05
2023-03-12T10:37:20.783Z,31.75
2023-03-12T10:40:03.464Z,30.65
2023-03-12T10:42:54.720Z,34.03
2023-03-12T10:46:08.116Z,31.23
2023-03-12T10:48:51.744Z,27.20
2023-03-12T10:51:40.037Z,29.13
2023-03-12T10:54:31.751Z,29.58
2023-03-12T10:57:16.371Z,41.53
2023-03-12T11:00:05.826Z,26.77
2023-03-12T11:02:56.462Z,37.20
2023-03-12T11:05:45.811Z,35.70
2023-03-12T11:08:44.170Z,34.70
2023-03-12T11:11:40.844Z,36.33
2023-03-12T11:14:31.253Z,39.83
2023-03-12T11:17:36.751Z,40.85
2023-03-12T11:20:37.744Z,29.80
2023-03-12T11:23:32.847Z,31.00
2023-03-12T11:26:22.220Z,35.65
2023-03-12T11:29:31.861Z,36.90
2023-03-12T11:32:17.265Z,39.60
2023-03-12T11:35:06.722Z,35.80
2023-03-12T11:38:07.066Z,31.80
2023-03-12T11:41:10.682Z,29.98
2023-03-12T11:44:13.696Z,34.75
2023-03-12T11:47:28.057Z,33.20
2023-03-12T11:50:40.712Z,32.85
2023-03-12T11:53:32.069Z,35.13
2023-03-12T11:56:36.073Z,30.20
2023-03-12T11:59:41.082Z,42.00
2023-03-12T12:02:46.802Z,35.70
2023-03-12T12:05:58.685Z,33.83
2023-03-12T12:09:16.071Z,27.33
2023-03-12T12:12:36.843Z,28.25
2023-03-12T12:15:58.148Z,37.15
2023-03-12T12:19:04.114Z,33.63
2023-03-12T12:22:06.231Z,30.08
2023-03-12T12:25:29.728Z,30.45
2023-03-12T12:29:13.827Z,27.55
2023-03-12T12:32:00.539Z,30.95
2023-03-12T12:35:30.832Z,33.83
2023-03-12T12:38:31.632Z,28.95
2023-03-12T12:41:35.722Z,32.33
2023-03-12T12:44:22.638Z,30.33
2023-03-12T12:47:20.751Z,28.35
2023-03-12T12:50:04.854Z,31.40
2023-03-12T12:52:53.750Z,31.00
2023-03-12T12:56:02.076Z,33.80
2023-03-12T12:58:57.776Z,38.30
2023-03-12T13:01:40.977Z,42.83
2023-03-12T13:04:41.712Z,30.90
2023-03-12T13:07:25.234Z,29.20
2023-03-12T13:10:21.807Z,38.50
2023-03-12T13:13:14.229Z,26.40
2023-03-12T13:16:03.846Z,28.55
2023-03-12T13:19:09.042Z,29.25
2023-03-12T13:22:10.738Z,29.83
2023-03-12T13:25:18.162Z,31.70
2023-03-12T13:28:30.735Z,33.33
2023-03-12T13:31:32.110Z,34.73
2023-03-12T13:34:28.152Z,31.27
2023-03-12T13:37:11.049Z,33.42
2023-03-12T13:39:59.721Z,33.05
2023-03-12T13:42:48.028Z,29.30
2023-03-12T13:45:39.753Z,29.00
2023-03-12T13:48:29.339Z,30.98
2023-03-12T13:51:33.787Z,37.53
2023-03-12T13:54:26.195Z,38.45
2023-03-12T13:57:20.696Z,36.72
2023-03-12T14:00:06.646Z,32.60
2023-03-12T14:03:05.713Z,39.63
2023-03-12T14:06:06.200Z,32.58
2023-03-12T14:09:20.745Z,37.42
2023-03-12T14:12:27.837Z,36.45
2023-03-12T14:15:30.752Z,36.65
2023-03-12T14:18:31.470Z,42.23
2023-03-12T14:21:24.970Z,40.92
2023-03-12T14:24:08.023Z,41.17
2023-03-12T14:26:57.736Z,45.20
2023-03-12T14:29:47.187Z,47.40
2023-03-12T14:32:39.887Z,40.38
2023-03-12T14:35:54.139Z,39.63
2023-03-12T14:38:50.735Z,47.35
2023-03-12T14:41:51.623Z,44.47
2023-03-12T14:44:44.770Z,40.20
2023-03-12T14:47:27.169Z,43.58
2023-03-12T14:50:24.839Z,47.17
2023-03-12T14:53:21.137Z,49.28
2023-03-12T14:56:18.699Z,50.78
2023-03-12T14:59:01.044Z,50.70
2023-03-12T15:01:49.941Z,55.42
2023-03-12T15:04:33.084Z,45.63
2023-03-12T15:07:26.741Z,49.60
2023-03-12T15:10:14.002Z,46.83
2023-03-12T15:13:05.833Z,48.33
2023-03-12T15:15:56.595Z,40.92
2023-03-12T15:18:45.798Z,41.47
2023-03-12T15:21:29.053Z,45.08
2023-03-12T15:24:21.027Z,47.97
2023-03-12T15:27:36.722Z,48.92
2023-03-12T15:30:39.085Z,51.05
2023-03-12T15:33:25.730Z,62.95
2023-03-12T15:36:25.820Z,54.78
2023-03-12T15:39:12.096Z,41.22
2023-03-12T15:42:01.818Z,44.03
2023-03-12T15:44:56.150Z,45.15
2023-03-12T15:47:48.753Z,43.78
2023-03-12T15:50:56.858Z,44.28
2023-03-12T15:53:46.003Z,40.03
2023-03-12T15:56:31.728Z,35.88
2023-03-12T15:59:37.008Z,34.05
2023-03-12T16:02:20.806Z,38.70
2023-03-12T16:05:09.082Z,42.08
2023-03-12T16:07:51.830Z,44.33
2023-03-12T16:10:42.986Z,49.80
2023-03-12T16:13:30.771Z,56.28
2023-03-12T16:16:21.194Z,49.22
2023-03-12T16:19:02.848Z,60.50
2023-03-12T16:21:52.297Z,51.35
2023-03-12T16:24:33.769Z,47.08
2023-03-12T16:27:32.832Z,52.40
2023-03-12T16:30:39.812Z,51.78
2023-03-12T16:33:25.109Z,50.03
2023-03-12T16:36:24.201Z,52.22
2023-03-12T16:39:06.209Z,56.63
2023-03-12T16:41:55.813Z,50.63
2023-03-12T16:44:42.035Z,58.58
2023-03-12T16:47:30.775Z,50.60
2023-03-12T16:50:23.507Z,60.08
2023-03-12T16:53:12.751Z,57.00
2023-03-12T16:56:07.764Z,58.20
2023-03-12T16:58:57.694Z,57.38
2023-03-12T17:01:40.071Z,49.17
2023-03-12T17:04:28.801Z,45.05
2023-03-12T17:07:11.050Z,49.83
2023-03-12T17:09:59.810Z,46.03
2023-03-12T17:12:54.673Z,49.08
2023-03-12T17:15:37.291Z,38.72
2023-03-12T17:18:26.688Z,45.92
2023-03-12T17:21:12.731Z,49.58
2023-03-12T17:24:03.716Z,66.47
2023-03-12T17:26:54.378Z,94.32
2023-03-12T17:29:36.993Z,84.53
2023-03-12T17:32:26.271Z,68.75
2023-03-12T17:35:10.745Z,56.67
2023-03-12T17:37:53.143Z,64.57
2023-03-12T17:40:43.730Z,60.47
2023-03-12T17:43:26.113Z,64.03
2023-03-12T17:46:19.805Z,65.93
2023-03-12T17:49:09.056Z,68.90
2023-03-12T17:51:52.729Z,67.18
2023-03-12T17:54:42.201Z,68.25
2023-03-12T17:57:26.069Z,63.30
2023-03-12T18:00:13.715Z,62.38
2023-03-12T18:03:02.830Z,68.13
2023-03-12T18:05:51.042Z,63.05
2023-03-12T18:08:33.744Z,68.07
2023-03-12T18:11:16.000Z,65.00
2023-03-12T18:14:04.820Z,65.07
2023-03-12T18:16:53.089Z,63.92
2023-03-12T18:19:50.730Z,60.97
2023-03-12T18:22:33.054Z,59.42
2023-03-12T18:25:21.756Z,66.75
2023-03-12T18:28:16.600Z,65.32
2023-03-12T18:31:05.778Z,59.92
2023-03-12T18:33:48.052Z,60.97
2023-03-12T18:36:36.733Z,60.00
2023-03-12T18:39:19.122Z,67.22
2023-03-12T18:42:07.684Z,66.15
2023-03-12T18:44:58.708Z,70.82
2023-03-12T18:47:51.256Z,70.03
2023-03-12T18:50:33.711Z,60.03
2023-03-12T18:53:22.033Z,70.22
2023-03-12T18:56:05.786Z,71.18
2023-03-12T18:58:54.021Z,75.85
2023-03-12T19:01:36.782Z,64.45
2023-03-12T19:04:20.692Z,72.63
2023-03-12T19:07:09.686Z,69.03
2023-03-12T19:09:58.060Z,77.22
2023-03-12T19:12:51.381Z,76.25
2023-03-12T19:15:47.209Z,64.18
2023-03-12T19:18:29.751Z,67.00
2023-03-12T19:21:19.608Z,73.43
2023-03-12T19:24:02.779Z,72.18
2023-03-12T19:26:57.729Z,71.28
2023-03-12T19:29:46.103Z,65.15
2023-03-12T19:32:33.351Z,72.80
2023-03-12T19:35:31.199Z,71.18
2023-03-12T19:38:13.705Z,72.28
2023-03-12T19:41:05.035Z,68.47
2023-03-12T19:43:48.720Z,72.85
2023-03-12T19:46:38.742Z,63.85
2023-03-12T19:49:21.543Z,75.80
2023-03-12T19:52:13.341Z,67.05
2023-03-12T19:55:04.197Z,67.40
2023-03-12T19:57:53.768Z,69.53
2023-03-12T20:00:42.684Z,74.85
2023-03-12T20:03:25.121Z,73.85
2023-03-12T20:06:14.715Z,74.85
2023-03-12T20:09:03.001Z,72.45
2023-03-12T20:11:45.780Z,83.18
2023-03-12T20:14:35.125Z,71.70
2023-03-12T20:17:18.077Z,77.88
2023-03-12T20:20:07.449Z,81.47
2023-03-12T20:22:49.659Z,78.55
2023-03-12T20:25:31.915Z,73.70
2023-03-12T20:28:20.709Z,81.68
2023-03-12T20:31:20.502Z,66.15
2023-03-12T20:34:03.697Z,71.93
2023-03-12T20:36:51.978Z,75.40
2023-03-12T20:39:33.709Z,85.75
2023-03-12T20:42:22.685Z,95.28
2023-03-12T20:45:05.308Z,99.53
2023-03-12T20:47:53.739Z,94.30
2023-03-12T20:50:37.036Z,122.57
2023-03-12T20:53:25.702Z,138.63
2023-03-12T20:56:08.000Z,139.18
2023-03-12T20:58:56.731Z,156.02
2023-03-12T21:01:39.011Z,139.75
2023-03-12T21:04:27.765Z,143.73
2023-03-12T21:07:10.029Z,141.82
2023-03-12T21:09:58.714Z,146.52
2023-03-12T21:12:41.061Z,156.50
2023-03-12T21:15:30.687Z,152.95
2023-03-12T21:18:12.973Z,157.07
2023-03-12T21:21:02.073Z,157.80
2023-03-12T21:23:45.143Z,153.45
2023-03-12T21:26:36.460Z,147.50
2023-03-12T21:29:31.721Z,145.35
2023-03-12T21:32:13.851Z,143.90
2023-03-12T21:35:03.692Z,151.20
2023-03-12T21:37:45.894Z,140.48
2023-03-12T21:40:34.700Z,136.43
2023-03-12T21:43:23.014Z,133.52
2023-03-12T21:46:04.769Z,137.35
2023-03-12T21:48:55.699Z,143.35
2023-03-12T21:51:44.710Z,144.45
2023-03-12T21:54:34.721Z,142.20
2023-03-12T21:57:17.053Z,143.43
2023-03-12T22:00:05.732Z,133.32
2023-03-12T22:02:51.209Z,119.32
2023-03-12T22:05:39.741Z,130.43
2023-03-12T22:08:22.044Z,119.22
2023-03-12T22:11:11.730Z,123.03
2023-03-12T22:13:54.078Z,126.80
2023-03-12T22:16:42.786Z,120.50
2023-03-12T22:19:25.491Z,124.88
2023-03-12T22:22:14.946Z,139.27
2023-03-12T22:24:56.989Z,124.25
2023-03-12T22:27:45.750Z,120.97
2023-03-12T22:30:28.038Z,122.55
2023-03-12T22:33:17.705Z,138.27
2023-03-12T22:36:00.089Z,142.57
2023-03-12T22:38:48.687Z,100.57
2023-03-12T22:41:34.073Z,81.65
2023-03-12T22:44:23.645Z,74.35
2023-03-12T22:47:12.758Z,71.78
2023-03-12T22:50:01.013Z,66.03
2023-03-12T22:52:43.697Z,69.97
2023-03-12T22:55:25.940Z,59.03
2023-03-12T22:58:14.663Z,66.55
2023-03-12T23:01:18.154Z,57.05
2023-03-12T23:04:00.648Z,54.67
2023-03-12T23:06:49.675Z,68.82
2023-03-12T23:09:31.909Z,58.92
2023-03-12T23:12:20.707Z,64.10
2023-03-12T23:15:02.975Z,64.93
2023-03-12T23:17:51.642Z,59.88
2023-03-12T23:20:33.969Z,66.95
2023-03-12T23:23:25.753Z,59.13
2023-03-12T23:26:09.058Z,58.53
2023-03-12T23:29:00.664Z,61.88
2023-03-12T23:31:47.515Z,57.67
2023-03-12T23:34:36.701Z,59.50
2023-03-12T23:37:20.034Z,54.30
2023-03-12T23:40:08.757Z,54.45
2023-03-12T23:42:52.024Z,51.95
2023-03-12T23:45:40.744Z,55.20
2023-03-12T23:48:29.721Z,55.38
2023-03-12T23:51:13.673Z,49.83
2023-03-12T23:54:04.935Z,49.47
2023-03-12T23:56:54.151Z,50.75
2023-03-12T23:59:35.703Z,46.53
